Terminal Aerodrome Forecast
Issued by NWS

Home | Current Version | Previous Version | Text Only | Print | Product List | Glossary Off
Versions: 1 2 3 4 5 6 7 8 9 10 11 12 13 14 15 16 17 18 19

579
FTUS43 KABR 281516 AAA
TAFATY
TAF AMD
KATY 281516Z 2815/2912 28015G24KT P6SM SCT200
     FM290200 VRB05KT P6SM BKN200=

USA.gov is the U.S. government's official web portal to all federal, state and local government web resources and services.